Time;durP1;ratioP1;P1;durP2;ratioP2;P2;SDS_P1;SDS_P2;PMS_P1;PMS_P2;Temp;Humidity;BMP_temperature;BMP_pressure;BME280_temperature;BME280_humidity;BME280_pressure;Samples;Min_cycle;Max_cycle;Signal;HPM_P1;HPM_P2
2023/02/10 00:01:02;;;;;;;10.38;6.57;;;-0.80;57.60;;;;;;5091322;28;20624;-70
2023/02/10 00:03:30;;;;;;;11.45;6.20;;;-0.70;57.60;;;;;;5092303;28;20193;-69
2023/02/10 00:05:58;;;;;;;10.98;6.45;;;-0.60;57.70;;;;;;5094032;28;20308;-70
2023/02/10 00:08:25;;;;;;;14.45;6.75;;;-0.60;56.70;;;;;;5096226;28;20225;-69
2023/02/10 00:10:52;;;;;;;12.63;6.88;;;-0.60;56.60;;;;;;5095737;28;20231;-70
2023/02/10 00:13:19;;;;;;;10.98;6.85;;;-0.60;56.50;;;;;;5095739;28;20224;-70
2023/02/10 00:15:46;;;;;;;9.13;6.13;;;-0.60;56.30;;;;;;5094692;28;20196;-71
2023/02/10 00:18:17;;;;;;;10.25;5.68;;;-0.60;56.40;;;;;;5094942;28;20280;-70
2023/02/10 00:20:46;;;;;;;11.00;6.57;;;-0.50;56.50;;;;;;5095770;28;20193;-70
2023/02/10 00:23:13;;;;;;;11.15;6.38;;;-0.50;57.20;;;;;;5095617;28;20200;-70
2023/02/10 00:25:40;;;;;;;14.52;6.45;;;-0.50;57.10;;;;;;5095306;28;20280;-70
2023/02/10 00:28:07;;;;;;;11.63;6.75;;;-0.50;56.10;;;;;;5095817;28;20229;-70
2023/02/10 00:30:35;;;;;;;9.95;6.13;;;-0.50;55.70;;;;;;5094917;28;20654;-70
2023/02/10 00:33:02;;;;;;;10.65;6.30;;;-0.50;56.00;;;;;;5095213;28;20220;-70
2023/02/10 00:35:31;;;;;;;11.30;6.03;;;-0.40;56.10;;;;;;5093049;28;20185;-70
2023/02/10 00:37:59;;;;;;;8.05;5.70;;;-0.40;56.40;;;;;;5094900;28;20573;-70
2023/02/10 00:40:26;;;;;;;11.70;6.47;;;-0.50;56.60;;;;;;5094631;28;20280;-70
2023/02/10 00:42:55;;;;;;;11.20;7.68;;;-0.50;56.60;;;;;;5095143;28;20280;-70
2023/02/10 00:45:22;;;;;;;12.80;6.25;;;-0.50;56.60;;;;;;5093843;28;20193;-70
2023/02/10 00:47:53;;;;;;;9.32;5.40;;;-0.40;56.60;;;;;;5095338;28;20279;-69
2023/02/10 00:50:21;;;;;;;7.82;5.57;;;-0.50;56.40;;;;;;5093663;28;20238;-69
2023/02/10 00:52:55;;;;;;;9.73;5.88;;;-0.50;56.10;;;;;;5094979;28;20243;-70
2023/02/10 00:55:24;;;;;;;8.73;5.18;;;-0.50;56.10;;;;;;5094328;28;20653;-70
2023/02/10 00:57:51;;;;;;;12.40;7.80;;;-0.50;56.10;;;;;;5094443;28;20304;-72
2023/02/10 01:00:18;;;;;;;12.57;7.18;;;-0.50;56.30;;;;;;5094630;28;20189;-69
2023/02/10 01:02:46;;;;;;;10.38;6.63;;;-0.50;56.20;;;;;;5094405;28;20280;-69
2023/02/10 01:05:13;;;;;;;12.30;6.20;;;-0.60;56.00;;;;;;5094098;28;20236;-70
2023/02/10 01:07:40;;;;;;;11.52;6.45;;;-0.60;56.00;;;;;;5094823;28;20201;-70
2023/02/10 01:10:07;;;;;;;9.10;6.13;;;-0.70;56.00;;;;;;5094607;28;20255;-69
2023/02/10 01:12:38;;;;;;;12.85;7.88;;;-0.70;56.20;;;;;;5094539;28;20221;-69
2023/02/10 01:15:06;;;;;;;11.35;6.28;;;-0.80;56.50;;;;;;5092933;28;20213;-70
2023/02/10 01:17:33;;;;;;;12.15;7.47;;;-0.80;56.80;;;;;;5094366;28;20650;-69
2023/02/10 01:20:00;;;;;;;13.30;8.10;;;-0.80;56.80;;;;;;5094327;28;20284;-69
2023/02/10 01:22:27;;;;;;;14.98;7.60;;;-0.80;56.60;;;;;;5093704;28;20221;-70
2023/02/10 01:24:59;;;;;;;13.32;8.07;;;-0.90;56.30;;;;;;5094170;28;20276;-70
2023/02/10 01:27:26;;;;;;;10.88;7.40;;;-1.00;56.00;;;;;;5093770;28;20220;-71
2023/02/10 01:29:55;;;;;;;13.80;7.53;;;-1.00;55.90;;;;;;5093787;28;20273;-70
2023/02/10 01:32:22;;;;;;;13.25;7.55;;;-1.00;56.10;;;;;;5093985;28;20624;-71
2023/02/10 01:34:49;;;;;;;15.45;8.35;;;-1.10;56.40;;;;;;5094121;28;20284;-71
2023/02/10 01:37:16;;;;;;;12.18;6.63;;;-1.10;56.60;;;;;;5093517;28;20305;-71
2023/02/10 01:39:44;;;;;;;13.20;6.78;;;-1.20;56.90;;;;;;5094296;28;20607;-71
2023/02/10 01:42:13;;;;;;;14.43;6.85;;;-1.20;57.70;;;;;;5093704;28;20242;-72
2023/02/10 01:45:17;;;;;;;11.60;7.18;;;-1.30;57.40;;;;;;5092158;28;20286;-71
2023/02/10 01:47:49;;;;;;;9.00;6.40;;;-1.30;57.40;;;;;;5051342;28;20623;-72
2023/02/10 01:50:18;;;;;;;9.48;6.30;;;-1.30;57.10;;;;;;5051219;28;20252;-69
2023/02/10 01:52:46;;;;;;;11.45;5.50;;;-1.30;58.20;;;;;;5072943;28;20231;-71
2023/02/10 01:55:16;;;;;;;9.27;5.53;;;-1.30;57.60;;;;;;5094025;28;20224;-71
2023/02/10 01:57:45;;;;;;;11.38;5.82;;;-1.40;58.50;;;;;;5093460;28;20302;-70
2023/02/10 02:00:14;;;;;;;10.25;5.72;;;-1.50;59.40;;;;;;5093190;28;20217;-71
2023/02/10 02:02:44;;;;;;;16.95;7.78;;;-1.40;59.30;;;;;;5093698;28;20288;-71
2023/02/10 02:05:30;;;;;;;13.02;8.00;;;-1.40;59.10;;;;;;5092813;28;20212;-71
2023/02/10 02:08:01;;;;;;;8.30;6.75;;;-1.40;59.10;;;;;;5092823;28;20177;-70
2023/02/10 02:10:41;;;;;;;12.70;7.30;;;-1.40;59.00;;;;;;5092930;28;20599;-70
2023/02/10 02:13:16;;;;;;;10.90;6.13;;;-1.40;59.10;;;;;;5093258;28;20273;-70
2023/02/10 02:15:49;;;;;;;13.32;5.80;;;-1.40;59.00;;;;;;5093388;28;20185;-71
2023/02/10 02:18:26;;;;;;;10.30;6.80;;;-1.50;59.50;;;;;;5092693;28;20300;-70
2023/02/10 02:21:28;;;;;;;15.57;6.05;;;-1.50;59.60;;;;;;5093422;28;20231;-71
2023/02/10 02:24:36;;;;;;;8.57;5.43;;;-1.50;58.60;;;;;;5093580;28;20257;-70
2023/02/10 02:27:25;;;;;;;13.93;7.13;;;-1.50;57.80;;;;;;5092661;28;20221;-72
2023/02/10 02:30:33;;;;;;;15.25;6.68;;;-1.50;57.80;;;;;;5091133;28;20193;-71
2023/02/10 02:33:09;;;;;;;11.02;6.82;;;-1.50;57.90;;;;;;5067304;28;20548;-70
2023/02/10 02:35:43;;;;;;;13.65;7.85;;;-1.50;57.80;;;;;;5088362;28;20230;-71
2023/02/10 02:38:11;;;;;;;13.13;7.25;;;-1.50;57.50;;;;;;5092034;28;20197;-71
2023/02/10 02:40:38;;;;;;;13.63;7.10;;;-1.50;56.90;;;;;;5092781;28;20261;-71
2023/02/10 02:43:06;;;;;;;15.63;7.20;;;-1.60;56.70;;;;;;5093275;28;20287;-69
2023/02/10 02:45:47;;;;;;;10.02;7.15;;;-1.60;56.60;;;;;;5093242;28;20207;-71
2023/02/10 02:48:28;;;;;;;12.25;6.05;;;-1.70;56.80;;;;;;5092543;28;20223;-71
2023/02/10 02:51:05;;;;;;;13.50;5.80;;;-1.70;57.30;;;;;;5092386;28;20220;-74
2023/02/10 02:53:40;;;;;;;11.45;5.97;;;-1.70;57.50;;;;;;5092822;28;20703;-71
2023/02/10 02:56:19;;;;;;;8.90;6.40;;;-1.70;57.60;;;;;;5092127;28;20177;-70
2023/02/10 02:58:54;;;;;;;13.15;6.68;;;-1.70;57.40;;;;;;5092758;28;20256;-71
2023/02/10 03:01:30;;;;;;;9.32;6.30;;;-1.70;57.50;;;;;;5092429;28;20333;-71
2023/02/10 03:03:59;;;;;;;11.60;6.07;;;-1.80;57.40;;;;;;5090573;28;20593;-70
2023/02/10 03:06:27;;;;;;;8.50;6.07;;;-1.80;57.00;;;;;;5092565;28;20360;-70
2023/02/10 03:08:54;;;;;;;12.10;6.40;;;-1.80;56.90;;;;;;5091887;28;20212;-71
2023/02/10 03:11:24;;;;;;;11.32;6.70;;;-1.90;56.90;;;;;;5091965;28;20281;-71
2023/02/10 03:13:51;;;;;;;12.45;6.28;;;-1.90;56.90;;;;;;5091651;28;20220;-70
2023/02/10 03:16:18;;;;;;;12.65;5.93;;;-2.00;57.00;;;;;;5092787;28;20188;-69
2023/02/10 03:18:45;;;;;;;12.10;7.13;;;-2.10;57.30;;;;;;5091869;28;20267;-72
2023/02/10 03:21:14;;;;;;;10.40;6.43;;;-2.10;57.50;;;;;;5092348;28;20185;-71
2023/02/10 03:23:41;;;;;;;7.78;5.93;;;-2.10;57.50;;;;;;5091868;28;20242;-71
2023/02/10 03:26:08;;;;;;;8.40;5.32;;;-2.10;57.60;;;;;;5092739;28;20378;-70
2023/02/10 03:28:36;;;;;;;6.85;5.60;;;-2.10;57.30;;;;;;5092862;28;20698;-71
2023/02/10 03:31:04;;;;;;;10.93;6.18;;;-2.20;57.10;;;;;;5092578;28;20600;-69
2023/02/10 03:33:32;;;;;;;10.57;6.55;;;-2.20;56.80;;;;;;5091867;28;20246;-74
2023/02/10 03:35:59;;;;;;;10.13;5.95;;;-2.20;57.00;;;;;;5072065;28;20227;-70
2023/02/10 03:38:28;;;;;;;10.57;6.07;;;-2.20;57.30;;;;;;5073005;28;20263;-71
2023/02/10 03:40:56;;;;;;;10.98;6.18;;;-2.30;57.40;;;;;;5095496;28;20193;-70
2023/02/10 03:43:23;;;;;;;9.32;5.47;;;-2.20;57.80;;;;;;5096055;28;20286;-70
2023/02/10 03:45:51;;;;;;;9.70;5.53;;;-2.20;57.80;;;;;;5096081;28;20277;-70
2023/02/10 03:48:26;;;;;;;10.20;6.55;;;-2.20;58.40;;;;;;5096260;28;20184;-70
2023/02/10 03:50:53;;;;;;;10.32;5.05;;;-2.30;58.70;;;;;;5095714;28;20188;-70
2023/02/10 03:53:20;;;;;;;9.70;6.13;;;-2.30;59.30;;;;;;5096017;28;20284;-70
2023/02/10 03:55:49;;;;;;;8.45;5.07;;;-2.30;59.60;;;;;;5095738;28;20193;-70
2023/02/10 03:58:16;;;;;;;8.10;4.65;;;-2.30;59.70;;;;;;5096031;28;20212;-71
2023/02/10 04:00:43;;;;;;;10.27;6.45;;;-2.40;59.90;;;;;;5096215;28;20197;-70
2023/02/10 04:03:10;;;;;;;8.63;4.50;;;-2.40;60.40;;;;;;5095754;28;20636;-70
2023/02/10 04:05:37;;;;;;;12.38;5.95;;;-2.40;61.00;;;;;;5094668;28;20216;-70
2023/02/10 04:08:05;;;;;;;9.05;5.05;;;-2.40;61.60;;;;;;5095349;28;20285;-70
2023/02/10 04:10:34;;;;;;;14.73;5.55;;;-2.40;61.60;;;;;;5095791;28;20284;-70
2023/02/10 04:13:03;;;;;;;9.85;5.35;;;-2.30;61.60;;;;;;5095536;28;20600;-70
2023/02/10 04:15:35;;;;;;;9.80;4.10;;;-2.30;61.10;;;;;;5094871;28;20260;-70
2023/02/10 04:18:02;;;;;;;8.70;5.72;;;-2.20;60.70;;;;;;5095725;28;20205;-70
2023/02/10 04:20:29;;;;;;;9.55;4.90;;;-2.20;60.00;;;;;;5095891;28;20289;-70
2023/02/10 04:22:58;;;;;;;13.25;5.80;;;-2.20;59.70;;;;;;5095244;28;20190;-70
2023/02/10 04:25:25;;;;;;;9.07;5.07;;;-2.20;59.40;;;;;;5095561;28;20228;-70
2023/02/10 04:27:57;;;;;;;8.10;5.22;;;-2.20;59.20;;;;;;5095842;28;20189;-70
2023/02/10 04:30:29;;;;;;;8.85;4.80;;;-2.20;58.80;;;;;;5095646;28;20627;-71
2023/02/10 04:32:56;;;;;;;9.00;4.82;;;-2.20;58.50;;;;;;5094991;28;20228;-70
2023/02/10 04:35:23;;;;;;;12.48;6.60;;;-2.20;58.00;;;;;;5095687;28;20639;-70
2023/02/10 04:37:50;;;;;;;16.25;9.07;;;-2.30;57.60;;;;;;5094842;28;20691;-70
2023/02/10 04:40:18;;;;;;;11.38;7.53;;;-2.30;58.00;;;;;;5095377;28;20284;-70
2023/02/10 04:42:45;;;;;;;13.27;7.35;;;-2.40;58.20;;;;;;5094843;28;20641;-70
2023/02/10 04:45:12;;;;;;;11.10;7.80;;;-2.40;58.30;;;;;;5095201;28;20288;-71
2023/02/10 04:47:40;;;;;;;15.70;7.82;;;-2.50;58.20;;;;;;5095333;28;20197;-71
2023/02/10 04:50:08;;;;;;;13.10;7.57;;;-2.50;58.30;;;;;;5094280;28;20576;-70
2023/02/10 04:52:35;;;;;;;10.43;7.50;;;-2.60;58.40;;;;;;5094929;28;20275;-70
2023/02/10 04:55:02;;;;;;;13.73;7.07;;;-2.60;58.30;;;;;;5094951;28;20224;-70
2023/02/10 04:57:29;;;;;;;12.63;6.72;;;-2.70;58.20;;;;;;5094474;28;20193;-70
2023/02/10 04:59:56;;;;;;;10.02;6.20;;;-2.70;58.20;;;;;;5095029;28;20189;-70
2023/02/10 05:02:23;;;;;;;10.07;6.30;;;-2.70;58.40;;;;;;5095289;28;20193;-70
2023/02/10 05:04:52;;;;;;;12.73;7.25;;;-2.70;58.30;;;;;;5095130;28;20224;-70
2023/02/10 05:07:19;;;;;;;9.18;5.75;;;-2.90;58.10;;;;;;5095175;28;20280;-72
2023/02/10 05:09:46;;;;;;;13.88;6.32;;;-2.90;58.30;;;;;;5093929;28;20185;-71
2023/02/10 05:12:13;;;;;;;12.05;6.13;;;-2.90;58.10;;;;;;5094606;28;20271;-71
2023/02/10 05:14:43;;;;;;;11.32;5.95;;;-2.90;58.00;;;;;;5094725;28;20281;-71
2023/02/10 05:17:11;;;;;;;11.38;6.60;;;-3.00;58.40;;;;;;5093929;28;20182;-71
2023/02/10 05:19:38;;;;;;;8.48;5.53;;;-3.00;59.50;;;;;;5094389;28;20224;-70
2023/02/10 05:22:06;;;;;;;12.65;6.50;;;-3.00;59.30;;;;;;5094926;28;20224;-70
2023/02/10 05:24:34;;;;;;;9.57;5.45;;;-3.00;59.90;;;;;;5094469;28;20257;-71
2023/02/10 05:27:01;;;;;;;10.65;5.35;;;-3.00;60.00;;;;;;5074463;28;20186;-70
2023/02/10 05:29:28;;;;;;;12.30;6.93;;;-3.00;59.40;;;;;;5090438;28;20192;-70
2023/02/10 05:31:55;;;;;;;8.15;5.30;;;-3.00;58.70;;;;;;5094442;28;20221;-71
2023/02/10 05:34:23;;;;;;;8.55;5.25;;;-3.00;58.40;;;;;;5094524;28;20583;-70
2023/02/10 05:36:50;;;;;;;9.90;6.05;;;-3.10;58.30;;;;;;5094042;28;20228;-70
2023/02/10 05:39:24;;;;;;;10.00;6.28;;;-3.10;58.60;;;;;;5094770;28;20248;-75
2023/02/10 05:41:52;;;;;;;9.88;5.82;;;-3.20;58.70;;;;;;5094434;28;20257;-69
2023/02/10 05:44:19;;;;;;;11.15;5.97;;;-3.20;58.50;;;;;;5093468;28;20715;-70
2023/02/10 05:46:46;;;;;;;10.80;5.80;;;-3.20;58.20;;;;;;5094397;28;20280;-71
2023/02/10 05:49:14;;;;;;;10.63;8.25;;;-3.20;58.50;;;;;;5094424;28;20276;-70
2023/02/10 05:51:41;;;;;;;21.25;10.68;;;-3.20;58.90;;;;;;5094431;28;20185;-73
2023/02/10 05:54:09;;;;;;;14.63;7.85;;;-3.20;59.30;;;;;;5094016;28;20614;-70
2023/02/10 05:56:37;;;;;;;14.75;8.48;;;-3.30;59.80;;;;;;5094088;28;20242;-70
2023/02/10 05:59:05;;;;;;;12.05;6.90;;;-3.30;60.50;;;;;;5094157;28;20714;-71
2023/02/10 06:01:34;;;;;;;17.98;7.55;;;-3.40;60.80;;;;;;5092855;28;20188;-73
2023/02/10 06:04:01;;;;;;;19.75;8.75;;;-3.30;61.10;;;;;;5092945;28;20193;-71
2023/02/10 06:06:28;;;;;;;17.80;7.63;;;-3.30;61.30;;;;;;5093820;28;20286;-71
2023/02/10 06:09:00;;;;;;;11.88;6.78;;;-3.20;61.70;;;;;;5094105;28;20193;-71
2023/02/10 06:11:27;;;;;;;14.55;7.43;;;-3.20;61.90;;;;;;5092833;28;20193;-71
2023/02/10 06:13:56;;;;;;;17.17;7.75;;;-3.30;62.60;;;;;;5091845;28;20231;-69
2023/02/10 06:16:23;;;;;;;20.40;10.70;;;-3.40;62.70;;;;;;5092580;28;20228;-68
2023/02/10 06:18:50;;;;;;;52.10;22.85;;;-3.40;63.00;;;;;;5091763;28;20678;-70
2023/02/10 06:21:19;;;;;;;42.03;16.85;;;-3.40;63.40;;;;;;5093330;28;20193;-70
2023/02/10 06:23:46;;;;;;;18.83;10.75;;;-3.30;63.80;;;;;;5093489;28;20185;-69
2023/02/10 06:26:13;;;;;;;15.00;7.82;;;-3.30;63.60;;;;;;5093546;28;20189;-71
2023/02/10 06:28:43;;;;;;;9.10;7.03;;;-3.20;63.00;;;;;;5091073;28;20197;-72
2023/02/10 06:31:12;;;;;;;12.38;6.45;;;-3.20;62.70;;;;;;5093147;28;20197;-72
2023/02/10 06:33:39;;;;;;;13.30;6.30;;;-3.20;62.50;;;;;;5093223;28;20708;-70
2023/02/10 06:36:07;;;;;;;14.50;8.48;;;-3.10;62.40;;;;;;5087875;28;20236;-72
2023/02/10 06:38:36;;;;;;;9.07;7.30;;;-3.10;62.40;;;;;;5090747;28;20228;-71
2023/02/10 06:41:03;;;;;;;13.25;7.15;;;-3.00;62.00;;;;;;5090601;28;20212;-70
2023/02/10 06:43:30;;;;;;;11.73;6.47;;;-3.00;61.80;;;;;;5092668;28;20220;-72
2023/02/10 06:45:57;;;;;;;11.75;6.22;;;-2.90;61.60;;;;;;5093573;28;20220;-71
2023/02/10 06:48:26;;;;;;;12.98;6.40;;;-2.90;61.20;;;;;;5091966;28;20275;-70
2023/02/10 06:50:53;;;;;;;18.88;8.65;;;-2.90;62.00;;;;;;5092481;28;20189;-71
2023/02/10 06:53:20;;;;;;;16.38;10.45;;;-2.80;61.00;;;;;;5093305;28;20554;-71
2023/02/10 06:55:55;;;;;;;9.70;7.07;;;-2.70;61.10;;;;;;5091879;28;20683;-71
2023/02/10 06:58:22;;;;;;;11.52;5.85;;;-2.50;61.50;;;;;;5090690;28;20300;-72
2023/02/10 07:00:49;;;;;;;12.88;7.00;;;-2.40;61.20;;;;;;5089676;28;20228;-68
2023/02/10 07:03:16;;;;;;;11.00;6.35;;;-2.30;60.30;;;;;;5091025;28;20288;-72
2023/02/10 07:05:45;;;;;;;10.63;5.75;;;-2.20;59.60;;;;;;5089876;28;20248;-70
2023/02/10 07:08:12;;;;;;;10.02;5.22;;;-2.10;59.70;;;;;;5091028;28;20291;-70
2023/02/10 07:10:40;;;;;;;9.07;6.28;;;-2.00;59.00;;;;;;5089623;28;20265;-72
2023/02/10 07:13:07;;;;;;;8.95;6.30;;;-1.90;59.00;;;;;;5091220;28;20225;-70
2023/02/10 07:15:34;;;;;;;14.98;6.43;;;-1.80;59.30;;;;;;5090697;28;20235;-70
2023/02/10 07:18:02;;;;;;;9.15;5.95;;;-1.60;59.00;;;;;;5090763;28;20254;-71
2023/02/10 07:20:29;;;;;;;10.35;5.15;;;-1.40;58.90;;;;;;5090603;28;20224;-71
2023/02/10 07:22:57;;;;;;;8.07;4.32;;;-1.20;58.40;;;;;;5091069;28;20952;-70
2023/02/10 07:25:24;;;;;;;8.15;4.00;;;-0.90;58.10;;;;;;5090466;28;20201;-71
2023/02/10 07:27:51;;;;;;;7.80;5.13;;;-0.70;57.30;;;;;;5090684;28;20280;-71
2023/02/10 07:30:18;;;;;;;10.32;5.95;;;-0.60;57.10;;;;;;5089971;28;20322;-72
2023/02/10 07:32:45;;;;;;;6.70;5.25;;;-0.30;57.40;;;;;;5090050;28;20216;-71
2023/02/10 07:35:13;;;;;;;8.70;5.30;;;-0.10;56.60;;;;;;5091745;28;20220;-71
2023/02/10 07:37:42;;;;;;;11.57;5.35;;;0.30;56.50;;;;;;5093055;28;20185;-71
2023/02/10 07:40:11;;;;;;;8.85;4.35;;;0.60;55.60;;;;;;5089078;28;20312;-70
2023/02/10 07:42:38;;;;;;;8.88;5.65;;;0.90;55.00;;;;;;5088859;28;20279;-70
2023/02/10 07:45:06;;;;;;;5.85;4.35;;;1.20;54.70;;;;;;5091135;28;20239;-70
2023/02/10 07:47:33;;;;;;;8.93;4.22;;;1.60;54.20;;;;;;5092393;28;20194;-71
2023/02/10 07:50:00;;;;;;;6.68;3.70;;;2.00;53.20;;;;;;5091636;28;20377;-70
2023/02/10 07:52:27;;;;;;;7.80;3.85;;;2.30;53.00;;;;;;5092201;28;20228;-70
2023/02/10 07:54:55;;;;;;;10.35;4.25;;;2.80;52.30;;;;;;5092541;28;20621;-70
2023/02/10 07:57:23;;;;;;;7.38;3.53;;;3.10;50.70;;;;;;5091909;28;20195;-70
2023/02/10 07:59:50;;;;;;;8.48;4.65;;;3.50;49.90;;;;;;5092315;28;20305;-70
2023/02/10 08:02:17;;;;;;;8.80;6.00;;;3.90;49.80;;;;;;5091341;28;20230;-72
2023/02/10 08:04:44;;;;;;;10.98;6.53;;;4.20;48.60;;;;;;5090579;28;20249;-70
2023/02/10 08:07:12;;;;;;;12.90;6.18;;;4.50;48.00;;;;;;5091549;28;20222;-72
2023/02/10 08:09:39;;;;;;;6.95;4.20;;;4.90;46.90;;;;;;5091530;28;20181;-71
2023/02/10 08:12:06;;;;;;;6.60;3.80;;;5.20;45.70;;;;;;5092205;28;20287;-70
2023/02/10 08:14:35;;;;;;;5.40;3.75;;;5.50;44.50;;;;;;5092643;28;20599;-71
2023/02/10 08:17:02;;;;;;;5.03;3.55;;;5.80;43.90;;;;;;5092633;28;20186;-71
2023/02/10 08:19:29;;;;;;;8.32;3.70;;;6.20;43.50;;;;;;5092297;28;20248;-71
2023/02/10 08:21:56;;;;;;;6.75;4.25;;;6.50;42.80;;;;;;5092343;28;20557;-70
2023/02/10 08:24:23;;;;;;;9.40;5.03;;;6.90;42.00;;;;;;5092175;28;20197;-71
2023/02/10 08:26:50;;;;;;;7.50;5.30;;;7.10;39.90;;;;;;5095243;28;20276;-70
2023/02/10 08:29:17;;;;;;;7.15;4.68;;;7.20;38.60;;;;;;5095816;28;20276;-70
2023/02/10 08:31:46;;;;;;;6.45;3.92;;;7.40;39.10;;;;;;5095817;28;20195;-71
2023/02/10 08:34:16;;;;;;;6.05;4.13;;;7.90;38.70;;;;;;5095953;28;20197;-71
2023/02/10 08:36:43;;;;;;;6.30;3.33;;;8.30;38.20;;;;;;5095805;28;20189;-71
2023/02/10 08:39:11;;;;;;;7.03;4.60;;;8.60;37.00;;;;;;5095849;28;20303;-71
2023/02/10 08:41:39;;;;;;;10.23;5.75;;;8.80;35.70;;;;;;5095916;28;20635;-71
2023/02/10 08:44:06;;;;;;;7.00;4.20;;;8.90;36.00;;;;;;5095866;28;20718;-71
2023/02/10 08:46:34;;;;;;;7.43;4.65;;;9.30;36.20;;;;;;5095665;28;20288;-71
2023/02/10 08:49:03;;;;;;;8.60;4.10;;;9.70;35.40;;;;;;5095696;28;20280;-71
2023/02/10 08:51:31;;;;;;;6.70;4.05;;;10.10;34.40;;;;;;5095701;28;20235;-71
2023/02/10 08:54:00;;;;;;;6.50;5.45;;;10.50;33.50;;;;;;5095252;28;20193;-70
2023/02/10 08:56:27;;;;;;;8.05;4.90;;;10.80;32.40;;;;;;5095160;28;20197;-71
2023/02/10 08:58:56;;;;;;;9.45;5.05;;;11.20;32.40;;;;;;5095047;28;20252;-71
2023/02/10 09:01:26;;;;;;;8.05;5.13;;;11.30;30.60;;;;;;5095451;28;20271;-70
2023/02/10 09:03:53;;;;;;;9.05;5.68;;;11.60;30.50;;;;;;5095242;28;20200;-71
2023/02/10 09:06:24;;;;;;;7.00;4.65;;;11.80;29.10;;;;;;5094866;28;20263;-70
2023/02/10 09:08:53;;;;;;;8.05;4.75;;;11.90;29.00;;;;;;5095322;28;20231;-70
2023/02/10 09:11:22;;;;;;;5.60;4.95;;;12.10;29.40;;;;;;5095100;28;20197;-71
2023/02/10 09:13:51;;;;;;;13.82;5.07;;;12.30;28.90;;;;;;5094697;28;20553;-70
2023/02/10 09:16:18;;;;;;;7.63;5.80;;;12.60;28.70;;;;;;5094936;28;20722;-71
2023/02/10 09:18:45;;;;;;;6.75;5.50;;;12.80;28.60;;;;;;5094959;28;20280;-71
2023/02/10 09:21:13;;;;;;;9.80;6.07;;;13.10;28.10;;;;;;5094686;28;20279;-71
2023/02/10 09:23:41;;;;;;;5.40;4.13;;;13.40;27.90;;;;;;5095269;28;20707;-72
2023/02/10 09:26:10;;;;;;;6.63;4.43;;;13.70;27.30;;;;;;5094829;28;20221;-71
2023/02/10 09:28:38;;;;;;;6.65;4.30;;;14.00;26.80;;;;;;5094920;28;20185;-70
2023/02/10 09:31:07;;;;;;;6.10;4.68;;;14.20;26.20;;;;;;5095046;28;20238;-71
2023/02/10 09:33:35;;;;;;;7.95;4.57;;;14.40;26.20;;;;;;5094826;28;20280;-71
2023/02/10 09:36:03;;;;;;;5.38;3.65;;;14.30;25.50;;;;;;5094418;28;20271;-70
2023/02/10 09:38:33;;;;;;;6.82;3.78;;;14.30;26.10;;;;;;5094777;28;20280;-71
2023/02/10 09:41:10;;;;;;;5.43;4.38;;;14.70;25.80;;;;;;5094336;28;20264;-71
2023/02/10 09:43:58;;;;;;;5.22;4.03;;;15.00;25.90;;;;;;5094662;28;20291;-70
2023/02/10 09:46:36;;;;;;;5.43;3.75;;;15.30;25.60;;;;;;5094459;28;20285;-71
2023/02/10 09:49:19;;;;;;;6.07;3.60;;;15.50;24.90;;;;;;5094625;28;20196;-71
2023/02/10 09:52:00;;;;;;;7.23;5.07;;;15.70;24.70;;;;;;5094355;28;20427;-71
2023/02/10 09:54:31;;;;;;;6.47;4.90;;;16.00;24.40;;;;;;5093855;28;20427;-71
2023/02/10 09:57:03;;;;;;;5.70;3.83;;;16.40;23.50;;;;;;5094378;28;20542;-71
2023/02/10 09:59:32;;;;;;;6.73;4.57;;;16.40;23.00;;;;;;5094191;28;20927;-70
2023/02/10 10:02:04;;;;;;;5.87;5.27;;;16.50;23.40;;;;;;5093968;28;20470;-71
2023/02/10 10:04:32;;;;;;;7.80;4.60;;;16.70;22.70;;;;;;5093801;28;20438;-70
2023/02/10 10:07:11;;;;;;;5.40;4.60;;;16.90;22.90;;;;;;5094172;28;20546;-70
2023/02/10 10:09:43;;;;;;;7.00;4.50;;;17.20;22.40;;;;;;5094271;28;20482;-71
2023/02/10 10:12:16;;;;;;;9.00;5.30;;;17.40;22.50;;;;;;5094101;28;20846;-71
2023/02/10 10:14:44;;;;;;;7.10;5.07;;;17.50;22.40;;;;;;5094224;28;20435;-71
2023/02/10 10:17:33;;;;;;;7.83;5.20;;;17.60;22.60;;;;;;5094256;28;20829;-72
2023/02/10 10:20:16;;;;;;;8.20;6.60;;;17.70;22.30;;;;;;5084356;28;20605;-71
2023/02/10 10:22:51;;;;;;;8.50;6.20;;;18.00;22.00;;;;;;5093722;28;20471;-71
2023/02/10 10:25:40;;;;;;;10.70;7.20;;;18.00;21.30;;;;;;5093919;28;20513;-70
2023/02/10 10:28:22;;;;;;;7.60;5.70;;;17.80;20.80;;;;;;5093414;28;20435;-71
2023/02/10 10:30:52;;;;;;;9.50;6.30;;;17.80;21.90;;;;;;5093280;28;20439;-71
2023/02/10 10:33:27;;;;;;;10.57;6.97;;;18.20;21.70;;;;;;5093806;28;20518;-70
2023/02/10 10:35:54;;;;;;;11.20;7.60;;;18.30;21.40;;;;;;5093562;28;20434;-70
2023/02/10 10:38:23;;;;;;;10.10;7.27;;;18.30;21.50;;;;;;5093792;28;20427;-71
2023/02/10 10:40:55;;;;;;;11.47;9.00;;;18.40;21.30;;;;;;5093476;28;20565;-71
2023/02/10 10:43:27;;;;;;;9.83;8.03;;;18.50;21.30;;;;;;5093365;28;20482;-71
2023/02/10 10:46:00;;;;;;;12.40;8.87;;;18.60;21.60;;;;;;5093592;28;20435;-71
2023/02/10 10:48:30;;;;;;;11.00;8.27;;;18.80;21.70;;;;;;5092409;28;20471;-71
2023/02/10 10:51:02;;;;;;;14.30;8.83;;;19.00;21.60;;;;;;5093543;28;20488;-71
2023/02/10 10:53:40;;;;;;;16.00;8.83;;;19.10;21.40;;;;;;5093538;28;20526;-70
2023/02/10 10:56:13;;;;;;;14.90;9.17;;;19.40;21.60;;;;;;5093515;28;20441;-71
2023/02/10 10:58:44;;;;;;;12.97;9.00;;;19.50;21.80;;;;;;5093349;28;20490;-71
2023/02/10 11:01:13;;;;;;;10.83;9.00;;;19.70;22.10;;;;;;5093159;28;20566;-71
2023/02/10 11:03:40;;;;;;;11.47;8.80;;;19.90;22.00;;;;;;5093404;28;20838;-70
2023/02/10 11:06:09;;;;;;;12.73;8.87;;;20.10;21.60;;;;;;5092726;28;20910;-70
2023/02/10 11:08:41;;;;;;;13.70;8.93;;;20.30;21.30;;;;;;5093190;28;20945;-70
2023/02/10 11:11:11;;;;;;;12.40;9.03;;;20.30;20.60;;;;;;5093143;28;20435;-70
2023/02/10 11:13:41;;;;;;;13.63;10.10;;;20.30;21.20;;;;;;5092946;28;20466;-70
2023/02/10 11:16:11;;;;;;;12.73;10.07;;;20.50;21.20;;;;;;5093061;28;20993;-70
2023/02/10 11:18:51;;;;;;;13.00;10.00;;;20.50;20.70;;;;;;5093260;28;20463;-71
2023/02/10 11:21:18;;;;;;;12.00;9.23;;;20.50;20.60;;;;;;5093034;28;21066;-70
2023/02/10 11:23:49;;;;;;;14.30;9.00;;;20.40;20.40;;;;;;5092997;28;20525;-70
2023/02/10 11:26:21;;;;;;;13.70;10.83;;;20.30;20.40;;;;;;5092704;28;20446;-71
2023/02/10 11:28:50;;;;;;;14.07;9.70;;;20.20;20.40;;;;;;5092890;28;20439;-71
2023/02/10 11:31:31;;;;;;;13.13;9.20;;;20.20;20.60;;;;;;5092692;28;20510;-71
2023/02/10 11:34:01;;;;;;;13.33;10.40;;;20.30;21.10;;;;;;5092741;28;20428;-70
2023/02/10 11:36:39;;;;;;;15.10;10.40;;;20.30;21.00;;;;;;5089186;28;20834;-70
2023/02/10 11:39:17;;;;;;;13.27;9.60;;;20.30;21.30;;;;;;5090438;28;20435;-70
2023/02/10 11:41:44;;;;;;;12.33;9.70;;;20.40;21.00;;;;;;5091977;28;20443;-70
2023/02/10 11:44:25;;;;;;;12.53;9.90;;;20.40;20.60;;;;;;5091676;28;20515;-73
2023/02/10 11:46:57;;;;;;;13.23;9.70;;;20.30;21.10;;;;;;5091221;28;20906;-70
2023/02/10 11:49:27;;;;;;;14.17;9.37;;;20.30;20.80;;;;;;5091415;28;20458;-70
2023/02/10 11:51:56;;;;;;;12.57;9.40;;;20.50;20.90;;;;;;5091856;28;20457;-70
2023/02/10 11:54:24;;;;;;;15.13;9.97;;;20.40;20.20;;;;;;5091938;28;20439;-70
2023/02/10 12:00:10;;;;;;;11.33;9.60;;;20.30;20.40;;;;;;5093141;28;20511;-70
2023/02/10 12:03:02;;;;;;;11.90;9.60;;;20.50;20.60;;;;;;5095796;28;20470;-70
2023/02/10 12:05:33;;;;;;;13.20;9.37;;;20.40;20.30;;;;;;5093840;28;20895;-70
2023/02/10 12:08:11;;;;;;;13.00;10.03;;;20.40;20.20;;;;;;5095272;28;20458;-70
2023/02/10 12:10:44;;;;;;;11.47;9.40;;;20.50;19.80;;;;;;5095305;28;20493;-70
2023/02/10 12:13:23;;;;;;;14.43;9.27;;;20.70;19.80;;;;;;5096484;28;20514;-70
2023/02/10 12:16:05;;;;;;;13.47;9.57;;;20.70;19.40;;;;;;5095982;28;20850;-70
2023/02/10 12:18:46;;;;;;;15.03;10.90;;;20.70;19.60;;;;;;5096022;28;20517;-69
2023/02/10 12:21:32;;;;;;;15.40;9.83;;;20.60;19.80;;;;;;5095230;28;20882;-70
2023/02/10 12:24:18;;;;;;;11.40;8.23;;;20.70;19.10;;;;;;5095589;28;20439;-70
2023/02/10 12:26:51;;;;;;;11.33;9.53;;;20.60;18.80;;;;;;5095410;28;20492;-70
2023/02/10 12:29:32;;;;;;;10.90;9.10;;;20.40;18.70;;;;;;5095587;28;20443;-70
2023/02/10 12:32:08;;;;;;;11.13;9.30;;;20.20;18.80;;;;;;5095171;28;20496;-70
2023/02/10 12:35:05;;;;;;;12.77;9.70;;;20.10;19.00;;;;;;5083456;28;20509;-70
2023/02/10 12:37:50;;;;;;;12.83;8.97;;;20.20;18.70;;;;;;5086245;28;20447;-71
2023/02/10 12:40:41;;;;;;;11.07;9.10;;;20.10;18.70;;;;;;5089701;28;20474;-70
2023/02/10 12:43:31;;;;;;;12.17;9.27;;;20.10;18.80;;;;;;5089349;28;20439;-70
2023/02/10 12:46:06;;;;;;;16.60;11.23;;;20.10;18.70;;;;;;5089317;28;20442;-70
2023/02/10 12:48:42;;;;;;;15.17;10.83;;;19.90;19.40;;;;;;5093302;28;20477;-70
2023/02/10 12:51:32;;;;;;;12.63;9.40;;;19.70;19.10;;;;;;5087869;28;20496;-70
2023/02/10 12:54:07;;;;;;;15.03;9.50;;;19.50;19.30;;;;;;5087716;28;20583;-71
2023/02/10 12:56:41;;;;;;;11.50;9.53;;;19.40;19.20;;;;;;5091358;28;20434;-71
2023/02/10 12:59:14;;;;;;;16.70;9.97;;;19.20;19.40;;;;;;5092852;28;20849;-70
2023/02/10 13:01:44;;;;;;;12.27;8.60;;;19.10;19.90;;;;;;5094794;28;20487;-71